Česky Dansk Deutsch English Español Suomi Français Magyar Italiano Nederlands norsk Polski Português svenska Türkçe

 

Het Weer

Cairo Airport (Egypt)

14:00, 21 augustus 2016 (GMT)

NWNNE
WE
SWSSE
Home            
Cairo Airport Port Said Alexandria / Nouzha Alexandria Borg El Arab El Tor El Arish Ovda Taba Asyut Beer-Sheva Eilat Aqaba Airport Sharm El Sheikhintl Tel Aviv / Sde-Dov Airport Ben-Gurion International Airport Hurguada Jerusalem Airport Ma'An Mersa Matruh Sde-Haifa Haifa Queen Alia Airport Amman Airport Irbid

Om een weerknop op uw website of weblog te plaatsen, copieer onderstaande code en plak die in uw pagina. In het eerste vakje staat HTML-code, in het tweede vakje UBB-code.


Add to Google

Details

Wind speed:3 bf, 10 kn, 5.1 m/s, 11.5 miles/h, 18.5 km/h
Wind direction:NW, 320°
Visibility:Greater than 10000 m, 10 km, 32800 ft, 6.2 miles
Clouds:CAVOC
Temperature:35°C, 95°F
Gefühlte Temperatur:34°C, 93°F
Dew-point:13°C, 55°F
Atmospheric pressure:1009 hPa, 756.8 mmHg, 29.80 inHg, 0.996 atm
Relative humidity:26.6 %
METAR:HECA 211400Z 32010KT CAVOK 35/13 Q1009 NOSIG

Snelkoppelingen

Actuele weersinformatie van de hele wereld. Voeg locaties toe met het plus (+) symbool. Deze snelkoppelingen kunnen worden toegevoegd aan Google.

Lid van de Technetium groep

website free tracking
StatCounter NetStat W3C Validator

17-12-2017 04:47:48
astro.technetium.be money.technetium.be phote.technetium.be tafeltennistafel.technetium.be www.ligfiets.net